createdAt,value
2023-04-25T00:00:20.175Z,9.79
2023-04-25T00:02:47.672Z,9.76
2023-04-25T00:05:16.399Z,9.75
2023-04-25T00:07:43.812Z,9.74
2023-04-25T00:10:12.155Z,9.76
2023-04-25T00:12:40.061Z,9.77
2023-04-25T00:15:07.663Z,9.79
2023-04-25T00:17:36.063Z,9.78
2023-04-25T00:20:06.082Z,9.76
2023-04-25T00:22:35.403Z,9.74
2023-04-25T00:25:02.440Z,9.69
2023-04-25T00:27:30.717Z,9.68
2023-04-25T00:29:57.816Z,9.66
2023-04-25T00:32:24.943Z,9.64
2023-04-25T00:34:51.965Z,9.64
2023-04-25T00:37:19.461Z,9.64
2023-04-25T00:39:46.664Z,9.63
2023-04-25T00:42:13.742Z,9.64
2023-04-25T00:44:40.826Z,9.64
2023-04-25T00:47:08.531Z,9.67
2023-04-25T00:49:35.824Z,9.67
2023-04-25T00:52:02.882Z,9.69
2023-04-25T00:54:31.120Z,9.70
2023-04-25T00:56:58.755Z,9.69
2023-04-25T00:59:25.853Z,9.68
2023-04-25T01:01:53.103Z,9.65
2023-04-25T01:04:20.331Z,9.62
2023-04-25T01:06:47.570Z,9.58
2023-04-25T01:09:14.587Z,9.58
2023-04-25T01:11:41.815Z,9.56
2023-04-25T01:14:08.855Z,9.55
2023-04-25T01:16:35.880Z,9.53
2023-04-25T01:19:10.895Z,9.50
2023-04-25T01:21:37.841Z,9.46
2023-04-25T01:24:05.009Z,9.43
2023-04-25T01:26:32.146Z,9.41
2023-04-25T01:28:59.574Z,9.36
2023-04-25T01:31:26.835Z,9.25
2023-04-25T01:33:53.898Z,9.20
2023-04-25T01:36:21.691Z,9.17
2023-04-25T01:38:48.798Z,9.16
2023-04-25T01:41:16.233Z,9.10
2023-04-25T01:43:43.237Z,9.05
2023-04-25T01:46:10.389Z,9.04
2023-04-25T01:48:37.467Z,9.00
2023-04-25T01:51:04.741Z,9.00
2023-04-25T01:53:31.722Z,9.04
2023-04-25T01:55:59.602Z,9.06
2023-04-25T01:58:30.916Z,9.05
2023-04-25T02:01:06.535Z,9.02
2023-04-25T02:03:41.512Z,8.97
2023-04-25T02:06:15.175Z,8.89
2023-04-25T02:08:44.973Z,8.85
2023-04-25T02:11:13.598Z,8.80
2023-04-25T02:13:49.690Z,8.67
2023-04-25T02:16:33.207Z,8.58
2023-04-25T02:19:01.777Z,8.50
2023-04-25T02:21:31.543Z,8.45
2023-04-25T02:23:58.684Z,8.42
2023-04-25T02:26:29.123Z,8.41
2023-04-25T02:28:57.706Z,8.42
2023-04-25T02:31:24.715Z,8.40
2023-04-25T02:33:52.885Z,8.37
2023-04-25T02:36:20.093Z,8.37
2023-04-25T02:38:49.393Z,8.40
2023-04-25T02:41:16.410Z,8.40
2023-04-25T02:43:43.387Z,8.41
2023-04-25T02:46:11.097Z,8.40
2023-04-25T02:48:38.253Z,8.40
2023-04-25T02:51:05.326Z,8.38
2023-04-25T02:53:32.758Z,8.33
2023-04-25T02:56:00.268Z,8.33
2023-04-25T02:58:27.405Z,8.38
2023-04-25T03:00:55.803Z,8.39
2023-04-25T03:03:23.144Z,8.36
2023-04-25T03:05:51.821Z,8.35
2023-04-25T03:08:23.984Z,8.43
2023-04-25T03:10:52.459Z,8.50
2023-04-25T03:13:19.784Z,8.58
2023-04-25T03:15:47.126Z,8.70
2023-04-25T03:18:14.213Z,8.82
2023-04-25T03:20:42.943Z,8.85
2023-04-25T03:23:10.034Z,8.90
2023-04-25T03:25:38.051Z,8.96
2023-04-25T03:28:05.311Z,8.99
2023-04-25T03:30:33.214Z,9.07
2023-04-25T03:33:00.638Z,9.11
2023-04-25T03:35:27.780Z,9.19
2023-04-25T03:37:55.402Z,9.27
2023-04-25T03:40:27.952Z,9.27
2023-04-25T03:43:13.436Z,9.31
2023-04-25T03:45:47.124Z,9.39
2023-04-25T03:48:14.857Z,9.51
2023-04-25T03:50:41.854Z,9.65
2023-04-25T03:53:09.263Z,9.79
2023-04-25T03:55:56.319Z,10.02
2023-04-25T03:58:25.447Z,10.16
2023-04-25T04:00:52.650Z,10.31
2023-04-25T04:03:19.956Z,10.46
2023-04-25T04:05:47.609Z,10.69
2023-04-25T04:08:14.684Z,10.89
2023-04-25T04:10:42.347Z,11.12
2023-04-25T04:13:09.920Z,11.34
2023-04-25T04:15:37.170Z,11.63
2023-04-25T04:18:04.436Z,11.93
2023-04-25T04:20:31.949Z,12.13
2023-04-25T04:22:59.489Z,12.34
2023-04-25T04:25:27.291Z,12.50
2023-04-25T04:28:14.305Z,12.75
2023-04-25T04:30:52.244Z,12.90
2023-04-25T04:33:22.504Z,13.06
2023-04-25T04:35:56.772Z,13.21
2023-04-25T04:38:23.966Z,13.37
2023-04-25T04:40:53.512Z,13.48
2023-04-25T04:43:30.533Z,13.64
2023-04-25T04:46:25.709Z,13.83
2023-04-25T04:49:02.454Z,14.17
2023-04-25T04:51:50.899Z,14.41
2023-04-25T04:54:36.705Z,14.63
2023-04-25T04:57:36.171Z,14.86
2023-04-25T05:00:19.404Z,15.08
2023-04-25T05:02:46.523Z,15.24
2023-04-25T05:05:33.937Z,15.43
2023-04-25T05:08:32.055Z,15.73
2023-04-25T05:11:24.874Z,15.94
2023-04-25T05:14:14.989Z,16.13
2023-04-25T05:16:42.110Z,16.33
2023-04-25T05:19:39.056Z,16.57
2023-04-25T05:22:32.480Z,16.85
2023-04-25T05:25:28.819Z,17.17
2023-04-25T05:28:16.103Z,17.20
2023-04-25T05:30:50.670Z,17.39
2023-04-25T05:33:27.289Z,17.61
2023-04-25T05:35:54.538Z,17.76
2023-04-25T05:38:22.057Z,17.91
2023-04-25T05:41:08.439Z,17.96
2023-04-25T05:43:56.245Z,18.08
2023-04-25T05:46:34.166Z,18.17
2023-04-25T05:49:21.748Z,18.26
2023-04-25T05:52:10.768Z,18.34
2023-04-25T05:54:40.829Z,18.41
2023-04-25T05:57:07.986Z,18.50
2023-04-25T05:59:35.158Z,18.53
2023-04-25T06:02:02.455Z,18.72
2023-04-25T06:04:32.672Z,18.85
2023-04-25T06:07:01.421Z,18.92
2023-04-25T06:09:28.517Z,18.93
2023-04-25T06:11:55.664Z,19.04
2023-04-25T06:14:22.863Z,19.11
2023-04-25T06:16:51.608Z,19.08
2023-04-25T06:19:18.571Z,19.04
2023-04-25T06:21:45.510Z,19.11
2023-04-25T06:24:12.788Z,19.09
2023-04-25T06:26:39.795Z,19.11
2023-04-25T06:29:07.277Z,19.15
2023-04-25T06:31:34.980Z,19.24
2023-04-25T06:34:02.156Z,19.14
2023-04-25T06:36:31.586Z,19.01
2023-04-25T06:39:05.000Z,19.03
2023-04-25T06:41:33.957Z,19.08
2023-04-25T06:44:03.089Z,19.14
2023-04-25T06:46:34.170Z,19.17
2023-04-25T06:49:01.280Z,19.18
2023-04-25T06:51:30.816Z,19.17
2023-04-25T06:53:58.356Z,19.16
2023-04-25T06:56:34.735Z,19.23
2023-04-25T06:59:10.271Z,19.17
2023-04-25T07:01:39.270Z,19.18
2023-04-25T07:04:11.959Z,19.11
2023-04-25T07:06:46.060Z,19.03
2023-04-25T07:09:13.856Z,19.12
2023-04-25T07:11:43.448Z,19.17
2023-04-25T07:14:10.545Z,19.19
2023-04-25T07:16:37.697Z,19.32
2023-04-25T07:19:04.906Z,19.45
2023-04-25T07:21:32.397Z,19.54
2023-04-25T07:24:01.193Z,19.54
2023-04-25T07:26:32.998Z,19.62
2023-04-25T07:29:26.389Z,19.62
2023-04-25T07:31:54.075Z,19.62
2023-04-25T07:34:22.192Z,19.72
2023-04-25T07:36:49.536Z,19.89
2023-04-25T07:39:16.547Z,19.85
2023-04-25T07:41:44.245Z,19.80
2023-04-25T07:44:18.506Z,19.88
2023-04-25T07:46:45.735Z,20.09
2023-04-25T07:49:12.791Z,20.16
2023-04-25T07:51:42.106Z,20.18
2023-04-25T07:54:16.893Z,20.41
2023-04-25T07:56:52.922Z,20.61
2023-04-25T07:59:22.711Z,20.73
2023-04-25T08:01:49.976Z,20.82
2023-04-25T08:04:18.953Z,20.99
2023-04-25T08:06:54.857Z,21.14
2023-04-25T08:09:28.262Z,21.26
2023-04-25T08:11:56.572Z,21.23
2023-04-25T08:14:30.137Z,21.15
2023-04-25T08:16:57.230Z,21.09
2023-04-25T08:19:25.220Z,21.10
2023-04-25T08:21:52.990Z,21.01
2023-04-25T08:24:27.409Z,20.76
2023-04-25T08:26:55.121Z,20.47
2023-04-25T08:29:26.528Z,20.16
2023-04-25T08:31:56.242Z,20.06
2023-04-25T08:34:23.593Z,20.23
2023-04-25T08:36:52.018Z,20.33
2023-04-25T08:39:39.399Z,20.36
2023-04-25T08:42:25.825Z,20.62
2023-04-25T08:44:54.348Z,20.84
2023-04-25T08:47:23.596Z,20.87
2023-04-25T08:49:55.995Z,20.98
2023-04-25T08:52:24.128Z,20.86
2023-04-25T08:54:52.369Z,20.63
2023-04-25T08:57:20.227Z,20.47
2023-04-25T08:59:49.644Z,20.47
2023-04-25T09:02:19.035Z,20.54
2023-04-25T09:04:49.210Z,20.62
2023-04-25T09:07:19.758Z,20.79
2023-04-25T09:09:47.115Z,20.90
2023-04-25T09:12:19.635Z,20.91
2023-04-25T09:15:06.379Z,20.94
2023-04-25T09:17:58.778Z,20.88
2023-04-25T09:20:31.832Z,20.80
2023-04-25T09:23:04.110Z,20.64
2023-04-25T09:25:37.810Z,20.68
2023-04-25T09:28:05.778Z,20.83
2023-04-25T09:30:34.174Z,20.94
2023-04-25T09:33:11.858Z,21.01
2023-04-25T09:35:43.435Z,21.03
2023-04-25T09:38:19.204Z,21.06
2023-04-25T09:40:50.855Z,21.12
2023-04-25T09:43:26.399Z,21.18
2023-04-25T09:45:58.868Z,21.16
2023-04-25T09:48:27.314Z,21.08
2023-04-25T09:51:06.828Z,21.04
2023-04-25T09:53:41.114Z,21.04
2023-04-25T09:56:14.891Z,21.00
2023-04-25T09:58:42.277Z,21.01
2023-04-25T10:01:11.083Z,21.10
2023-04-25T10:03:49.642Z,21.17
2023-04-25T10:06:44.108Z,21.08
2023-04-25T10:09:11.570Z,20.90
2023-04-25T10:11:39.095Z,20.82
2023-04-25T10:14:06.501Z,20.94
2023-04-25T10:16:33.564Z,21.03
2023-04-25T10:19:00.801Z,20.97
2023-04-25T10:21:28.582Z,21.02
2023-04-25T10:23:55.618Z,21.09
2023-04-25T10:26:23.102Z,21.14
2023-04-25T10:29:00.838Z,21.16
2023-04-25T10:31:28.380Z,21.09
2023-04-25T10:33:55.733Z,21.13
2023-04-25T10:36:23.750Z,21.15
2023-04-25T10:38:51.900Z,21.18
2023-04-25T10:41:22.469Z,21.20
2023-04-25T10:43:50.719Z,21.10
2023-04-25T10:46:24.916Z,20.87
2023-04-25T10:48:53.524Z,20.68
2023-04-25T10:51:25.503Z,20.64
2023-04-25T10:54:02.362Z,20.62
2023-04-25T10:56:30.418Z,20.63
2023-04-25T10:59:11.500Z,20.61
2023-04-25T11:01:54.148Z,20.71
2023-04-25T11:04:26.998Z,20.73
2023-04-25T11:07:06.518Z,20.85
2023-04-25T11:09:41.203Z,20.89
2023-04-25T11:12:09.205Z,20.88
2023-04-25T11:14:36.875Z,20.74
2023-04-25T11:17:04.380Z,20.66
2023-04-25T11:19:31.746Z,20.55
2023-04-25T11:21:59.418Z,20.56
2023-04-25T11:24:33.338Z,20.48
2023-04-25T11:27:00.467Z,20.38
2023-04-25T11:29:31.519Z,20.31
2023-04-25T11:31:59.371Z,20.28
2023-04-25T11:34:27.073Z,20.17
2023-04-25T11:36:54.549Z,20.11
2023-04-25T11:39:21.559Z,20.03
2023-04-25T11:41:48.809Z,19.98
2023-04-25T11:44:19.179Z,19.90
2023-04-25T11:46:46.769Z,19.85
2023-04-25T11:49:14.569Z,19.90
2023-04-25T11:51:42.357Z,19.91
2023-04-25T11:54:09.318Z,19.91
2023-04-25T11:56:36.358Z,19.92
2023-04-25T11:59:07.682Z,19.93
2023-04-25T12:01:39.122Z,20.03
2023-04-25T12:04:16.131Z,20.07
2023-04-25T12:06:44.599Z,20.22
2023-04-25T12:09:12.334Z,20.35
2023-04-25T12:11:49.708Z,20.35
2023-04-25T12:14:28.346Z,20.41
2023-04-25T12:16:58.296Z,20.38
2023-04-25T12:19:25.613Z,20.37
2023-04-25T12:24:25.841Z,20.25
2023-04-25T12:27:03.382Z,20.14
2023-04-25T12:29:41.911Z,19.99
2023-04-25T12:32:15.638Z,19.92
2023-04-25T12:34:42.690Z,19.84
2023-04-25T12:37:09.683Z,19.71
2023-04-25T12:39:36.757Z,19.60
2023-04-25T12:42:06.176Z,19.38
2023-04-25T12:44:36.088Z,19.23
2023-04-25T12:47:04.336Z,19.11
2023-04-25T12:49:31.588Z,19.07
2023-04-25T12:51:58.973Z,19.07
2023-04-25T12:54:26.880Z,19.00
2023-04-25T12:56:54.143Z,18.97
2023-04-25T12:59:22.254Z,18.94
2023-04-25T13:01:49.437Z,18.88
2023-04-25T13:04:17.189Z,18.88
2023-04-25T13:06:44.739Z,18.93
2023-04-25T13:09:13.609Z,19.01
2023-04-25T13:11:42.445Z,19.12
2023-04-25T13:14:09.495Z,19.19
2023-04-25T13:16:36.695Z,19.19
2023-04-25T13:19:03.817Z,19.19
2023-04-25T13:21:34.207Z,19.22
2023-04-25T13:24:01.288Z,19.21
2023-04-25T13:26:28.573Z,19.15
2023-04-25T13:28:55.641Z,19.12
2023-04-25T13:31:22.679Z,19.03
2023-04-25T13:33:50.231Z,18.93
2023-04-25T13:36:19.432Z,18.83
2023-04-25T13:38:48.356Z,18.75
2023-04-25T13:41:19.848Z,18.70
2023-04-25T13:43:48.839Z,18.68
2023-04-25T13:46:35.313Z,18.66
2023-04-25T13:49:12.739Z,18.63
2023-04-25T13:51:40.466Z,18.64
2023-04-25T13:54:07.604Z,18.67
2023-04-25T13:56:34.727Z,18.72
2023-04-25T13:59:01.807Z,18.75
2023-04-25T14:01:29.361Z,18.72
2023-04-25T14:03:56.423Z,18.67
2023-04-25T14:06:25.141Z,18.53
2023-04-25T14:08:52.117Z,18.34
2023-04-25T14:11:19.488Z,18.16
2023-04-25T14:13:47.121Z,18.00
2023-04-25T14:16:14.232Z,17.73
2023-04-25T14:18:41.303Z,17.26
2023-04-25T14:21:08.350Z,16.76
2023-04-25T14:23:35.385Z,16.34
2023-04-25T14:26:02.781Z,15.95
2023-04-25T14:28:29.867Z,15.71
2023-04-25T14:30:57.171Z,15.53
2023-04-25T14:33:24.734Z,15.41
2023-04-25T14:35:51.796Z,15.32
2023-04-25T14:38:19.597Z,15.23
2023-04-25T14:40:46.670Z,15.19
2023-04-25T14:43:13.738Z,15.17
2023-04-25T14:45:40.872Z,15.11
2023-04-25T14:48:07.915Z,15.08
2023-04-25T14:50:35.143Z,15.03
2023-04-25T14:53:02.139Z,14.99
2023-04-25T14:55:29.325Z,14.96
2023-04-25T14:57:57.509Z,14.94
2023-04-25T15:00:26.304Z,14.93
2023-04-25T15:02:53.635Z,14.88
2023-04-25T15:05:21.075Z,14.83
2023-04-25T15:07:49.006Z,14.78
2023-04-25T15:10:17.208Z,14.73
2023-04-25T15:12:46.323Z,14.66
2023-04-25T15:15:22.703Z,14.59
2023-04-25T15:17:54.315Z,14.53
2023-04-25T15:20:22.444Z,14.45
2023-04-25T15:22:49.880Z,14.40
2023-04-25T15:25:19.022Z,14.35
2023-04-25T15:27:49.520Z,14.30
2023-04-25T15:30:17.468Z,14.24
2023-04-25T15:32:45.207Z,14.18
2023-04-25T15:35:12.281Z,14.14
2023-04-25T15:37:39.395Z,14.12
2023-04-25T15:40:10.753Z,14.05
2023-04-25T15:42:44.752Z,13.97
2023-04-25T15:45:12.292Z,13.88
2023-04-25T15:47:39.316Z,13.83
2023-04-25T15:50:08.333Z,13.77
2023-04-25T15:52:36.049Z,13.68
2023-04-25T15:55:04.671Z,13.65
2023-04-25T15:57:34.502Z,13.58
2023-04-25T16:00:03.076Z,13.53
2023-04-25T16:02:39.913Z,13.47
2023-04-25T16:05:07.638Z,13.42
2023-04-25T16:07:35.690Z,13.39
2023-04-25T16:10:02.737Z,13.35
2023-04-25T16:12:31.928Z,13.31
2023-04-25T16:14:58.939Z,13.28
2023-04-25T16:17:26.108Z,13.24
2023-04-25T16:19:53.126Z,13.19
2023-04-25T16:22:20.031Z,13.17
2023-04-25T16:24:47.323Z,13.10
2023-04-25T16:27:14.950Z,13.06
2023-04-25T16:29:42.397Z,13.00
2023-04-25T16:32:09.310Z,12.96
2023-04-25T16:34:36.490Z,12.91
2023-04-25T16:37:03.663Z,12.85
2023-04-25T16:39:30.763Z,12.78
2023-04-25T16:41:57.785Z,12.73
2023-04-25T16:44:24.764Z,12.67
2023-04-25T16:46:51.680Z,12.62
2023-04-25T16:49:18.761Z,12.53
2023-04-25T16:51:46.582Z,12.49
2023-04-25T16:54:13.580Z,12.43
2023-04-25T16:56:41.695Z,12.37
2023-04-25T16:59:08.654Z,12.29
2023-04-25T17:01:36.336Z,12.18
2023-04-25T17:04:03.536Z,12.08
2023-04-25T17:06:30.697Z,11.99
2023-04-25T17:08:57.656Z,11.90
2023-04-25T17:11:24.700Z,11.83
2023-04-25T17:13:51.744Z,11.77
2023-04-25T17:16:22.980Z,11.71
2023-04-25T17:18:53.522Z,11.64
2023-04-25T17:21:20.679Z,11.61
2023-04-25T17:23:47.675Z,11.56
2023-04-25T17:26:14.815Z,11.52
2023-04-25T17:28:42.313Z,11.49
2023-04-25T17:31:09.863Z,11.49
2023-04-25T17:33:37.088Z,11.47
2023-04-25T17:36:04.332Z,11.46
2023-04-25T17:38:32.188Z,11.41
2023-04-25T17:40:59.168Z,11.38
2023-04-25T17:43:27.689Z,11.38
2023-04-25T17:45:54.965Z,11.35
2023-04-25T17:48:22.903Z,11.34
2023-04-25T17:50:50.010Z,11.35
2023-04-25T17:53:17.144Z,11.31
2023-04-25T17:55:44.481Z,11.28
2023-04-25T17:58:11.743Z,11.29
2023-04-25T18:00:38.920Z,11.30
2023-04-25T18:03:06.135Z,11.33
2023-04-25T18:05:33.660Z,11.32
2023-04-25T18:08:00.885Z,11.31
2023-04-25T18:10:28.121Z,11.29
2023-04-25T18:12:55.092Z,11.27
2023-04-25T18:15:23.332Z,11.29
2023-04-25T18:17:50.701Z,11.30
2023-04-25T18:20:17.999Z,11.33
2023-04-25T18:22:45.369Z,11.31
2023-04-25T18:25:13.772Z,11.28
2023-04-25T18:27:41.084Z,11.27
2023-04-25T18:30:09.500Z,11.30
2023-04-25T18:32:36.946Z,11.32
2023-04-25T18:35:04.768Z,11.34
2023-04-25T18:37:33.115Z,11.37
2023-04-25T18:40:00.805Z,11.39
2023-04-25T18:42:27.840Z,11.39
2023-04-25T18:44:54.901Z,11.37
2023-04-25T18:47:21.806Z,11.31
2023-04-25T18:49:50.845Z,11.29
2023-04-25T18:52:19.097Z,11.30
2023-04-25T18:54:46.157Z,11.31
2023-04-25T18:57:15.171Z,11.31
2023-04-25T18:59:44.441Z,11.32
2023-04-25T19:02:12.614Z,11.28
2023-04-25T19:04:39.819Z,11.30
2023-04-25T19:07:06.963Z,11.35
2023-04-25T19:09:33.931Z,11.39
2023-04-25T19:12:01.908Z,11.47
2023-04-25T19:14:32.015Z,11.51
2023-04-25T19:17:01.881Z,11.55
2023-04-25T19:19:29.081Z,11.55
2023-04-25T19:21:56.063Z,11.55
2023-04-25T19:24:23.209Z,11.52
2023-04-25T19:26:50.213Z,11.49
2023-04-25T19:29:17.347Z,11.44
2023-04-25T19:31:44.868Z,11.42
2023-04-25T19:34:12.974Z,11.42
2023-04-25T19:36:41.469Z,11.38
2023-04-25T19:39:08.708Z,11.39
2023-04-25T19:41:36.417Z,11.41
2023-04-25T19:44:04.892Z,11.44
2023-04-25T19:46:32.209Z,11.42
2023-04-25T19:48:59.625Z,11.39
2023-04-25T19:51:30.827Z,11.37
2023-04-25T19:53:57.797Z,11.38
2023-04-25T19:56:24.833Z,11.39
2023-04-25T19:58:52.190Z,11.39
2023-04-25T20:01:22.193Z,11.39
2023-04-25T20:03:51.812Z,11.37
2023-04-25T20:06:19.157Z,11.34
2023-04-25T20:08:47.399Z,11.32
2023-04-25T20:11:15.181Z,11.27
2023-04-25T20:13:42.471Z,11.24
2023-04-25T20:16:09.560Z,11.21
2023-04-25T20:18:36.541Z,11.18
2023-04-25T20:21:03.578Z,11.15
2023-04-25T20:23:30.529Z,11.14
2023-04-25T20:25:57.646Z,11.15
2023-04-25T20:28:24.599Z,11.15
2023-04-25T20:30:51.661Z,11.14
2023-04-25T20:33:18.909Z,11.16
2023-04-25T20:35:46.583Z,11.16
2023-04-25T20:38:13.833Z,11.14
2023-04-25T20:40:40.887Z,11.11
2023-04-25T20:43:11.145Z,11.11
2023-04-25T20:45:38.676Z,11.12
2023-04-25T20:48:05.959Z,11.12
2023-04-25T20:50:33.451Z,11.10
2023-04-25T20:53:00.443Z,11.11
2023-04-25T20:55:27.835Z,11.08
2023-04-25T20:57:54.908Z,11.07
2023-04-25T21:00:27.472Z,11.06
2023-04-25T21:02:55.093Z,11.05
2023-04-25T21:05:22.522Z,11.06
2023-04-25T21:07:50.411Z,11.08
2023-04-25T21:10:17.702Z,11.06
2023-04-25T21:12:48.186Z,11.05
2023-04-25T21:15:20.159Z,11.09
2023-04-25T21:17:47.939Z,11.07
2023-04-25T21:20:17.839Z,11.05
2023-04-25T21:22:54.171Z,11.03
2023-04-25T21:25:29.120Z,11.03
2023-04-25T21:27:56.320Z,11.00
2023-04-25T21:30:23.969Z,11.02
2023-04-25T21:32:51.464Z,11.03
2023-04-25T21:35:19.525Z,11.01
2023-04-25T21:37:46.662Z,10.99
2023-04-25T21:40:14.266Z,10.97
2023-04-25T21:42:42.386Z,10.96
2023-04-25T21:45:10.204Z,10.97
2023-04-25T21:47:37.292Z,10.97
2023-04-25T21:50:05.188Z,10.97
2023-04-25T21:52:32.391Z,10.99
2023-04-25T21:54:59.776Z,10.93
2023-04-25T21:57:26.767Z,10.85
2023-04-25T21:59:53.750Z,10.82
2023-04-25T22:02:20.890Z,10.82
2023-04-25T22:04:48.139Z,10.79
2023-04-25T22:07:15.618Z,10.81
2023-04-25T22:09:53.818Z,10.82
2023-04-25T22:12:22.762Z,10.85
2023-04-25T22:14:50.288Z,10.86
2023-04-25T22:17:17.979Z,10.84
2023-04-25T22:19:45.307Z,10.83
2023-04-25T22:22:12.739Z,10.79
2023-04-25T22:24:40.217Z,10.79
2023-04-25T22:27:07.301Z,10.84
2023-04-25T22:29:34.294Z,10.86
2023-04-25T22:32:01.882Z,10.85
2023-04-25T22:34:28.890Z,10.81
2023-04-25T22:36:55.897Z,10.78
2023-04-25T22:39:23.528Z,10.77
2023-04-25T22:41:50.724Z,10.78
2023-04-25T22:44:17.988Z,10.79
2023-04-25T22:46:45.055Z,10.77
2023-04-25T22:49:12.132Z,10.77
2023-04-25T22:51:39.152Z,10.78
2023-04-25T22:54:06.212Z,10.72
2023-04-25T22:56:33.231Z,10.70
2023-04-25T22:59:00.304Z,10.72
2023-04-25T23:01:29.099Z,10.69
2023-04-25T23:03:56.671Z,10.70
2023-04-25T23:06:24.814Z,10.71
2023-04-25T23:08:52.080Z,10.73
2023-04-25T23:11:20.516Z,10.72
2023-04-25T23:13:47.598Z,10.65
2023-04-25T23:16:14.609Z,10.62
2023-04-25T23:18:41.677Z,10.58
2023-04-25T23:21:09.346Z,10.57
2023-04-25T23:23:36.596Z,10.60
2023-04-25T23:26:12.524Z,10.65
2023-04-25T23:28:41.659Z,10.63
2023-04-25T23:31:10.098Z,10.64
2023-04-25T23:33:37.586Z,10.64
2023-04-25T23:36:04.864Z,10.64
2023-04-25T23:38:32.234Z,10.59
2023-04-25T23:40:59.178Z,10.60
2023-04-25T23:43:26.362Z,10.61
2023-04-25T23:45:54.283Z,10.59
2023-04-25T23:48:21.517Z,10.61
2023-04-25T23:50:48.622Z,10.60
2023-04-25T23:53:15.711Z,10.58
2023-04-25T23:55:42.627Z,10.58
2023-04-25T23:58:09.778Z,10.56
